createdAt,value
2022-12-27T00:00:40.185Z,7.10
2022-12-27T00:03:07.083Z,7.10
2022-12-27T00:05:33.988Z,7.10
2022-12-27T00:08:03.099Z,7.00
2022-12-27T00:11:33.169Z,7.00
2022-12-27T00:14:07.062Z,6.90
2022-12-27T00:16:34.778Z,6.90
2022-12-27T00:19:06.820Z,6.80
2022-12-27T00:21:36.615Z,6.80
2022-12-27T00:24:04.298Z,6.70
2022-12-27T00:26:34.021Z,6.70
2022-12-27T00:29:01.640Z,6.70
2022-12-27T00:31:30.635Z,6.70
2022-12-27T00:34:00.351Z,6.70
2022-12-27T00:36:29.132Z,6.70
2022-12-27T00:38:58.009Z,6.60
2022-12-27T00:41:27.788Z,6.60
2022-12-27T00:43:55.361Z,6.60
2022-12-27T00:46:24.337Z,6.50
2022-12-27T00:48:51.242Z,6.50
2022-12-27T00:51:21.670Z,6.50
2022-12-27T00:53:49.108Z,6.50
2022-12-27T00:56:23.204Z,6.50
2022-12-27T00:59:00.141Z,6.40
2022-12-27T01:01:29.110Z,6.40
2022-12-27T01:03:59.308Z,6.40
2022-12-27T01:10:52.395Z,6.30
2022-12-27T01:13:19.270Z,6.20
2022-12-27T01:15:46.124Z,6.20
2022-12-27T01:18:20.487Z,6.10
2022-12-27T01:20:47.258Z,6.10
2022-12-27T01:23:14.088Z,6.00
2022-12-27T01:25:40.792Z,6.00
2022-12-27T01:28:09.935Z,6.00
2022-12-27T01:30:36.673Z,6.00
2022-12-27T01:33:06.650Z,6.00
2022-12-27T01:35:33.572Z,5.90
2022-12-27T01:38:00.349Z,5.90
2022-12-27T01:40:27.253Z,5.90
2022-12-27T01:42:55.396Z,5.80
2022-12-27T01:45:23.550Z,5.80
2022-12-27T01:48:01.390Z,5.80
2022-12-27T01:50:33.609Z,5.80
2022-12-27T01:53:18.728Z,5.80
2022-12-27T01:55:48.477Z,5.80
2022-12-27T01:58:25.709Z,5.80
2022-12-27T02:00:52.902Z,5.70
2022-12-27T02:03:33.969Z,5.70
2022-12-27T02:06:03.063Z,5.70
2022-12-27T02:08:29.792Z,5.60
2022-12-27T02:10:57.331Z,5.70
2022-12-27T02:13:24.128Z,5.70
2022-12-27T02:15:52.927Z,5.70
2022-12-27T02:18:22.239Z,5.60
2022-12-27T02:20:48.901Z,5.70
2022-12-27T02:23:52.651Z,5.60
2022-12-27T02:26:38.604Z,5.60
2022-12-27T02:29:17.463Z,5.60
2022-12-27T02:32:08.620Z,5.60
2022-12-27T02:34:41.086Z,5.60
2022-12-27T02:37:10.007Z,5.50
2022-12-27T02:39:41.113Z,5.50
2022-12-27T02:42:28.409Z,5.50
2022-12-27T02:45:13.787Z,5.50
2022-12-27T02:48:02.277Z,5.50
2022-12-27T02:50:56.207Z,5.50
2022-12-27T02:53:29.052Z,5.50
2022-12-27T02:56:46.899Z,5.40
2022-12-27T02:59:35.664Z,5.40
2022-12-27T03:02:38.704Z,5.40
2022-12-27T03:05:05.626Z,5.40
2022-12-27T03:07:53.740Z,5.40
2022-12-27T03:10:50.326Z,5.30
2022-12-27T03:13:45.131Z,5.30
2022-12-27T03:16:25.129Z,5.30
2022-12-27T03:18:51.871Z,5.30
2022-12-27T03:21:40.950Z,5.30
2022-12-27T03:24:39.940Z,5.30
2022-12-27T03:27:22.471Z,5.30
2022-12-27T03:30:10.675Z,5.20
2022-12-27T03:32:58.410Z,5.20
2022-12-27T03:35:26.781Z,5.20
2022-12-27T03:38:04.982Z,5.20
2022-12-27T03:40:39.566Z,5.20
2022-12-27T03:43:15.467Z,5.20
2022-12-27T03:46:16.069Z,5.20
2022-12-27T03:49:07.217Z,5.10
2022-12-27T03:52:03.592Z,5.10
2022-12-27T03:54:37.586Z,5.10
2022-12-27T03:57:27.687Z,5.10
2022-12-27T03:59:56.447Z,5.10
2022-12-27T04:02:24.706Z,5.10
2022-12-27T04:04:51.914Z,5.10
2022-12-27T04:07:18.912Z,5.10
2022-12-27T04:10:04.294Z,5.10
2022-12-27T04:12:49.590Z,5.10
2022-12-27T04:15:35.000Z,5.10
2022-12-27T04:18:20.417Z,5.10
2022-12-27T04:21:05.730Z,5.10
2022-12-27T04:23:51.060Z,5.10
2022-12-27T04:26:36.348Z,5.10
2022-12-27T04:29:22.015Z,5.10
2022-12-27T04:32:09.946Z,5.10
2022-12-27T04:34:43.478Z,5.10
2022-12-27T04:37:20.226Z,5.00
2022-12-27T04:40:10.821Z,5.10
2022-12-27T04:42:56.013Z,5.10
2022-12-27T04:45:44.093Z,5.10
2022-12-27T04:48:32.499Z,5.10
2022-12-27T04:51:18.837Z,5.10
2022-12-27T04:54:04.251Z,5.00
2022-12-27T04:56:33.466Z,5.10
2022-12-27T04:59:21.278Z,5.10
2022-12-27T05:02:03.360Z,5.00
2022-12-27T05:04:35.235Z,5.10
2022-12-27T05:07:22.860Z,5.10
2022-12-27T05:10:09.317Z,5.10
2022-12-27T05:12:59.730Z,5.10
2022-12-27T05:15:26.537Z,5.10
2022-12-27T05:17:56.264Z,5.00
2022-12-27T05:20:23.343Z,5.10
2022-12-27T05:23:13.831Z,5.00
2022-12-27T05:25:44.310Z,5.00
2022-12-27T05:28:13.063Z,5.00
2022-12-27T05:30:40.980Z,5.00
2022-12-27T05:33:10.056Z,5.00
2022-12-27T05:35:37.013Z,5.00
2022-12-27T05:38:06.562Z,5.00
2022-12-27T05:40:33.705Z,5.00
2022-12-27T05:43:06.025Z,5.00
2022-12-27T05:45:32.755Z,5.00
2022-12-27T05:48:01.741Z,5.10
2022-12-27T05:50:30.891Z,5.10
2022-12-27T05:53:09.817Z,5.10
2022-12-27T05:55:36.544Z,5.10
2022-12-27T05:58:03.526Z,5.10
2022-12-27T06:00:30.284Z,5.10
2022-12-27T06:02:57.066Z,5.00
2022-12-27T06:05:26.077Z,5.00
2022-12-27T06:07:52.838Z,5.10
2022-12-27T06:10:19.569Z,5.00
2022-12-27T06:12:46.329Z,5.00
2022-12-27T06:15:13.128Z,5.00
2022-12-27T06:17:39.891Z,5.00
2022-12-27T06:20:06.897Z,5.00
2022-12-27T06:22:33.612Z,5.00
2022-12-27T06:25:03.319Z,5.00
2022-12-27T06:27:32.477Z,5.00
2022-12-27T06:29:59.199Z,4.90
2022-12-27T06:32:25.931Z,4.90
2022-12-27T06:34:52.624Z,4.90
2022-12-27T06:37:21.389Z,4.90
2022-12-27T06:39:50.372Z,4.90
2022-12-27T06:42:17.140Z,4.90
2022-12-27T06:44:43.886Z,4.90
2022-12-27T06:47:10.646Z,4.90
2022-12-27T06:49:39.803Z,4.90
2022-12-27T06:52:06.958Z,4.90
2022-12-27T06:54:33.732Z,4.90
2022-12-27T06:57:00.518Z,4.90
2022-12-27T06:59:27.236Z,4.90
2022-12-27T07:01:54.151Z,4.90
2022-12-27T07:04:21.038Z,4.90
2022-12-27T07:06:47.736Z,4.90
2022-12-27T07:09:14.404Z,4.90
2022-12-27T07:11:41.079Z,4.90
2022-12-27T07:14:11.185Z,4.90
2022-12-27T07:16:40.088Z,4.80
2022-12-27T07:19:06.867Z,4.80
2022-12-27T07:21:34.458Z,4.90
2022-12-27T07:24:03.349Z,4.90
2022-12-27T07:26:30.655Z,4.90
2022-12-27T07:28:59.374Z,4.90
2022-12-27T07:31:27.533Z,4.90
2022-12-27T07:33:54.290Z,4.90
2022-12-27T07:36:22.597Z,5.00
2022-12-27T07:38:54.320Z,5.00
2022-12-27T07:41:21.451Z,5.00
2022-12-27T07:43:48.198Z,5.00
2022-12-27T07:46:19.460Z,5.00
2022-12-27T07:48:47.201Z,5.00
2022-12-27T07:51:14.910Z,5.10
2022-12-27T07:53:41.954Z,5.10
2022-12-27T07:56:11.002Z,5.20
2022-12-27T07:58:38.805Z,5.10
2022-12-27T08:01:06.000Z,5.20
2022-12-27T08:03:35.673Z,5.10
2022-12-27T08:06:02.479Z,5.20
2022-12-27T08:08:39.767Z,5.20
2022-12-27T08:11:06.829Z,5.20
2022-12-27T08:13:33.794Z,5.20
2022-12-27T08:16:00.844Z,5.20
2022-12-27T08:18:30.463Z,5.20
2022-12-27T08:20:59.914Z,5.20
2022-12-27T08:23:26.634Z,5.20
2022-12-27T08:25:53.334Z,5.30
2022-12-27T08:28:20.096Z,5.30
2022-12-27T08:30:47.212Z,5.30
2022-12-27T08:33:16.509Z,5.30
2022-12-27T08:35:54.751Z,5.30
2022-12-27T08:38:22.675Z,5.40
2022-12-27T08:40:49.510Z,5.40
2022-12-27T08:43:18.979Z,5.50
2022-12-27T08:45:45.813Z,5.50
2022-12-27T08:48:12.722Z,5.50
2022-12-27T08:50:39.539Z,5.50
2022-12-27T08:53:08.429Z,5.60
2022-12-27T08:55:35.239Z,5.60
2022-12-27T08:58:09.251Z,5.60
2022-12-27T09:00:40.669Z,5.60
2022-12-27T09:03:08.528Z,5.60
2022-12-27T09:05:41.905Z,5.60
2022-12-27T09:08:09.329Z,5.60
2022-12-27T09:10:38.430Z,5.60
2022-12-27T09:13:05.351Z,5.60
2022-12-27T09:15:34.744Z,5.60
2022-12-27T09:18:03.077Z,5.70
2022-12-27T09:20:29.945Z,5.70
2022-12-27T09:23:01.088Z,5.70
2022-12-27T09:25:27.894Z,5.80
2022-12-27T09:27:57.175Z,5.80
2022-12-27T09:30:24.049Z,5.80
2022-12-27T09:32:50.988Z,5.90
2022-12-27T09:35:17.960Z,5.90
2022-12-27T09:37:44.773Z,5.90
2022-12-27T09:40:16.519Z,5.90
2022-12-27T09:43:09.409Z,5.90
2022-12-27T09:45:49.011Z,5.90
2022-12-27T09:48:38.340Z,5.90
2022-12-27T09:51:14.649Z,5.90
2022-12-27T09:53:53.111Z,6.00
2022-12-27T10:00:50.989Z,6.10
2022-12-27T10:03:22.091Z,6.10
2022-12-27T10:10:38.217Z,6.20
2022-12-27T10:13:41.290Z,6.20
2022-12-27T10:16:32.942Z,6.20
2022-12-27T10:19:33.333Z,6.20
2022-12-27T10:22:23.322Z,6.20
2022-12-27T10:24:53.172Z,6.20
2022-12-27T10:27:26.422Z,6.20
2022-12-27T10:30:01.546Z,6.30
2022-12-27T10:32:28.617Z,6.30
2022-12-27T10:34:59.962Z,6.20
2022-12-27T10:37:27.342Z,6.30
2022-12-27T10:39:55.560Z,6.30
2022-12-27T10:42:31.945Z,6.40
2022-12-27T10:45:36.408Z,6.40
2022-12-27T10:48:22.970Z,6.50
2022-12-27T10:50:58.483Z,6.50
2022-12-27T10:53:59.522Z,6.50
2022-12-27T10:56:36.587Z,6.50
2022-12-27T10:59:23.430Z,6.50
2022-12-27T11:02:15.765Z,6.50
2022-12-27T11:04:58.260Z,6.50
2022-12-27T11:07:33.518Z,6.50
2022-12-27T11:10:20.129Z,6.50
2022-12-27T11:13:05.214Z,6.50
2022-12-27T11:15:43.005Z,6.60
2022-12-27T11:18:18.733Z,6.60
2022-12-27T11:20:55.065Z,6.60
2022-12-27T11:23:24.640Z,6.60
2022-12-27T11:26:19.880Z,6.60
2022-12-27T11:28:55.906Z,6.60
2022-12-27T11:31:32.541Z,6.60
2022-12-27T11:34:04.756Z,6.50
2022-12-27T11:36:40.871Z,6.60
2022-12-27T11:39:28.676Z,6.60
2022-12-27T11:41:57.770Z,6.60
2022-12-27T11:44:31.708Z,6.60
2022-12-27T11:47:11.404Z,6.60
2022-12-27T11:49:44.386Z,6.70
2022-12-27T11:52:43.726Z,6.70
2022-12-27T11:55:32.744Z,6.70
2022-12-27T11:58:33.111Z,6.70
2022-12-27T12:01:33.522Z,6.70
2022-12-27T12:04:38.009Z,6.70
2022-12-27T12:07:48.182Z,6.70
2022-12-27T12:10:27.236Z,6.70
2022-12-27T12:13:12.268Z,6.80
2022-12-27T12:15:57.394Z,6.80
2022-12-27T12:18:39.047Z,6.80
2022-12-27T12:21:27.318Z,6.90
2022-12-27T12:23:59.362Z,6.90
2022-12-27T12:26:30.105Z,6.90
2022-12-27T12:29:22.055Z,7.00
2022-12-27T12:32:24.548Z,7.00
2022-12-27T12:35:16.658Z,7.00
2022-12-27T12:38:05.845Z,7.00
2022-12-27T12:44:45.782Z,6.80
2022-12-27T12:47:24.627Z,6.80
2022-12-27T12:50:19.492Z,6.80
2022-12-27T12:53:15.513Z,6.70
2022-12-27T12:56:15.158Z,6.70
2022-12-27T12:59:05.421Z,6.70
2022-12-27T13:02:07.470Z,6.70
2022-12-27T13:04:43.582Z,6.70
2022-12-27T13:07:41.327Z,6.70
2022-12-27T13:10:26.872Z,6.80
2022-12-27T13:13:14.750Z,6.70
2022-12-27T13:16:06.009Z,6.70
2022-12-27T13:18:45.325Z,6.70
2022-12-27T13:21:42.093Z,6.70
2022-12-27T13:24:15.175Z,6.70
2022-12-27T13:26:52.888Z,6.70
2022-12-27T13:29:34.967Z,6.70
2022-12-27T13:36:25.077Z,6.80
2022-12-27T13:39:22.905Z,6.80
2022-12-27T13:42:10.174Z,6.90
2022-12-27T13:45:01.295Z,6.90
2022-12-27T13:47:30.856Z,6.90
2022-12-27T13:50:04.631Z,6.90
2022-12-27T13:52:54.471Z,6.90
2022-12-27T13:59:34.723Z,6.80
2022-12-27T14:02:29.063Z,6.80
2022-12-27T14:05:22.297Z,6.80
2022-12-27T14:07:52.004Z,6.80
2022-12-27T14:10:43.941Z,6.90
2022-12-27T14:13:11.964Z,6.90
2022-12-27T14:16:05.963Z,6.90
2022-12-27T14:18:46.620Z,6.80
2022-12-27T14:21:37.760Z,6.80
2022-12-27T14:24:07.671Z,6.70
2022-12-27T14:26:55.942Z,6.70
2022-12-27T14:29:58.373Z,6.60
2022-12-27T14:33:02.821Z,6.60
2022-12-27T14:35:42.062Z,6.50
2022-12-27T14:38:33.139Z,6.50
2022-12-27T14:41:18.883Z,6.50
2022-12-27T14:44:31.593Z,6.50
2022-12-27T14:47:25.843Z,6.50
2022-12-27T14:50:25.355Z,6.50
2022-12-27T14:53:11.292Z,6.50
2022-12-27T14:55:44.179Z,6.50
2022-12-27T14:58:20.905Z,6.50
2022-12-27T15:01:21.269Z,6.50
2022-12-27T15:04:28.740Z,6.50
2022-12-27T15:07:37.398Z,6.40
2022-12-27T15:10:04.468Z,6.40
2022-12-27T15:13:01.386Z,6.40
2022-12-27T15:15:46.304Z,6.30
2022-12-27T15:18:25.370Z,6.30
2022-12-27T15:21:29.208Z,6.30
2022-12-27T15:24:03.459Z,6.30
2022-12-27T15:27:15.142Z,6.30
2022-12-27T15:30:05.300Z,6.30
2022-12-27T15:32:36.915Z,6.20
2022-12-27T15:35:20.361Z,6.20
2022-12-27T15:37:47.252Z,6.20
2022-12-27T15:40:26.532Z,6.20
2022-12-27T15:43:16.383Z,6.10
2022-12-27T15:46:02.024Z,6.10
2022-12-27T15:48:54.684Z,6.10
2022-12-27T15:51:55.871Z,6.10
2022-12-27T15:54:37.618Z,6.00
2022-12-27T15:57:22.738Z,6.00
2022-12-27T16:00:14.651Z,6.00
2022-12-27T16:02:44.737Z,5.90
2022-12-27T16:05:13.607Z,5.90
2022-12-27T16:07:47.981Z,5.90
2022-12-27T16:10:29.996Z,5.90
2022-12-27T16:13:23.238Z,5.90
2022-12-27T16:15:55.009Z,5.80
2022-12-27T16:18:24.497Z,5.80
2022-12-27T16:21:14.065Z,5.80
2022-12-27T16:23:46.871Z,5.80
2022-12-27T16:26:19.649Z,5.70
2022-12-27T16:28:57.977Z,5.70
2022-12-27T16:31:41.850Z,5.70
2022-12-27T16:34:24.736Z,5.60
2022-12-27T16:36:57.086Z,5.60
2022-12-27T16:39:29.501Z,5.60
2022-12-27T16:42:08.768Z,5.60
2022-12-27T16:44:47.513Z,5.60
2022-12-27T16:47:51.896Z,5.60
2022-12-27T16:50:26.568Z,5.60
2022-12-27T16:53:04.708Z,5.50
2022-12-27T16:56:03.303Z,5.50
2022-12-27T16:58:30.118Z,5.50
2022-12-27T17:01:02.194Z,5.50
2022-12-27T17:03:38.283Z,5.50
2022-12-27T17:06:33.907Z,5.50
2022-12-27T17:09:10.736Z,5.50
2022-12-27T17:11:46.671Z,5.50
2022-12-27T17:14:33.967Z,5.50
2022-12-27T17:17:23.625Z,5.50
2022-12-27T17:20:06.664Z,5.50
2022-12-27T17:22:35.877Z,5.50
2022-12-27T17:25:06.566Z,5.50
2022-12-27T17:27:52.252Z,5.40
2022-12-27T17:30:26.493Z,5.40
2022-12-27T17:32:56.360Z,5.30
2022-12-27T17:35:43.206Z,5.30
2022-12-27T17:38:40.486Z,5.30
2022-12-27T17:41:46.469Z,5.30
2022-12-27T17:44:47.102Z,5.30
2022-12-27T17:47:34.436Z,5.30
2022-12-27T17:50:07.264Z,5.20
2022-12-27T17:53:31.036Z,5.20
2022-12-27T17:56:30.184Z,5.20
2022-12-27T17:59:14.360Z,5.20
2022-12-27T18:01:50.925Z,5.20
2022-12-27T18:04:39.327Z,5.10
2022-12-27T18:07:12.710Z,5.10
2022-12-27T18:09:47.734Z,5.10
2022-12-27T18:12:23.853Z,5.10
2022-12-27T18:15:03.868Z,5.10
2022-12-27T18:17:41.507Z,5.10
2022-12-27T18:20:27.106Z,5.10
2022-12-27T18:23:03.069Z,5.00
2022-12-27T18:25:33.518Z,5.00
2022-12-27T18:28:12.585Z,5.00
2022-12-27T18:30:48.847Z,5.00
2022-12-27T18:33:16.881Z,5.00
2022-12-27T18:35:48.604Z,5.00
2022-12-27T18:38:34.780Z,4.90
2022-12-27T18:41:05.946Z,5.00
2022-12-27T18:43:34.222Z,4.90
2022-12-27T18:46:02.876Z,4.90
2022-12-27T18:48:35.101Z,4.90
2022-12-27T18:51:05.590Z,4.90
2022-12-27T18:53:38.547Z,4.90
2022-12-27T18:56:25.895Z,4.80
2022-12-27T18:59:01.972Z,4.80
2022-12-27T19:01:32.110Z,4.80
2022-12-27T19:04:14.637Z,4.80
2022-12-27T19:06:46.004Z,4.80
2022-12-27T19:09:17.964Z,4.80
2022-12-27T19:12:04.785Z,4.70
2022-12-27T19:14:46.045Z,4.70
2022-12-27T19:17:22.954Z,4.70
2022-12-27T19:20:01.268Z,4.60
2022-12-27T19:22:46.506Z,4.60
2022-12-27T19:25:33.632Z,4.50
2022-12-27T19:28:23.004Z,4.50
2022-12-27T19:31:21.898Z,4.50
2022-12-27T19:34:06.181Z,4.40
2022-12-27T19:36:36.859Z,4.40
2022-12-27T19:39:09.330Z,4.40
2022-12-27T19:41:38.260Z,4.40
2022-12-27T19:44:05.872Z,4.40
2022-12-27T19:46:35.614Z,4.30
2022-12-27T19:51:50.031Z,4.30
2022-12-27T19:54:23.084Z,4.40
2022-12-27T19:56:49.976Z,4.30
2022-12-27T19:59:20.884Z,4.40
2022-12-27T20:01:47.822Z,4.30
2022-12-27T20:04:15.478Z,4.40
2022-12-27T20:06:46.608Z,4.40
2022-12-27T20:09:17.852Z,4.40
2022-12-27T20:11:44.823Z,4.40
2022-12-27T20:14:17.468Z,4.40
2022-12-27T20:16:45.301Z,4.50
2022-12-27T20:19:13.103Z,4.50
2022-12-27T20:21:41.194Z,4.50
2022-12-27T20:24:14.570Z,4.50
2022-12-27T20:26:42.261Z,4.50
2022-12-27T20:29:09.712Z,4.50
2022-12-27T20:31:43.855Z,4.50
2022-12-27T20:34:11.676Z,4.50
2022-12-27T20:36:41.960Z,4.50
2022-12-27T20:39:09.599Z,4.50
2022-12-27T20:41:36.582Z,4.50
2022-12-27T20:44:03.406Z,4.50
2022-12-27T20:46:30.170Z,4.60
2022-12-27T20:48:57.251Z,4.60
2022-12-27T20:51:25.439Z,4.60
2022-12-27T20:53:56.100Z,4.60
2022-12-27T20:56:23.141Z,4.60
2022-12-27T20:58:52.389Z,4.60
2022-12-27T21:01:21.274Z,4.60
2022-12-27T21:03:48.676Z,4.70
2022-12-27T21:06:17.116Z,4.60
2022-12-27T21:08:48.146Z,4.70
2022-12-27T21:11:20.717Z,4.70
2022-12-27T21:13:48.852Z,4.70
2022-12-27T21:16:16.970Z,4.70
2022-12-27T21:18:44.440Z,4.70
2022-12-27T21:21:13.056Z,4.70
2022-12-27T21:23:40.829Z,4.70
2022-12-27T21:26:09.299Z,4.70
2022-12-27T21:28:36.640Z,4.80
2022-12-27T21:31:03.750Z,4.80
2022-12-27T21:33:30.522Z,4.70
2022-12-27T21:35:57.382Z,4.80
2022-12-27T21:38:24.389Z,4.80
2022-12-27T21:41:00.456Z,4.80
2022-12-27T21:43:28.790Z,4.80
2022-12-27T21:46:01.892Z,4.90
2022-12-27T21:48:31.334Z,4.90
2022-12-27T21:51:10.702Z,4.90
2022-12-27T21:53:37.751Z,4.90
2022-12-27T21:56:05.653Z,4.90
2022-12-27T21:58:34.133Z,4.90
2022-12-27T22:01:08.666Z,4.90
2022-12-27T22:03:38.021Z,4.90
2022-12-27T22:06:28.331Z,4.90
2022-12-27T22:08:57.828Z,4.90
2022-12-27T22:11:28.132Z,4.90
2022-12-27T22:13:55.646Z,5.00
2022-12-27T22:16:28.214Z,5.00
2022-12-27T22:18:58.566Z,5.00
2022-12-27T22:21:28.766Z,5.00
2022-12-27T22:24:00.850Z,5.00
2022-12-27T22:26:30.559Z,5.00
2022-12-27T22:28:58.045Z,5.00
2022-12-27T22:31:30.540Z,5.00
2022-12-27T22:34:02.092Z,5.00
2022-12-27T22:36:29.070Z,5.00
2022-12-27T22:38:57.332Z,5.00
2022-12-27T22:41:35.084Z,5.00
2022-12-27T22:44:11.643Z,5.00
2022-12-27T22:47:07.047Z,5.00
2022-12-27T22:49:29.092Z,5.00
2022-12-27T22:51:55.967Z,5.00
2022-12-27T22:55:03.316Z,5.00
2022-12-27T22:57:11.776Z,5.00
2022-12-27T22:59:40.772Z,5.00
2022-12-27T23:02:07.695Z,5.00
2022-12-27T23:04:39.086Z,5.00
2022-12-27T23:07:08.947Z,5.00
2022-12-27T23:09:43.093Z,5.00
2022-12-27T23:12:15.905Z,5.10
2022-12-27T23:14:44.861Z,5.10
2022-12-27T23:17:11.714Z,5.10
2022-12-27T23:19:38.742Z,5.10
2022-12-27T23:22:10.319Z,5.10
2022-12-27T23:24:39.349Z,5.10
2022-12-27T23:27:08.309Z,5.20
2022-12-27T23:29:37.403Z,5.20
2022-12-27T23:32:06.612Z,5.20
2022-12-27T23:34:33.619Z,5.20
2022-12-27T23:37:01.258Z,5.20
2022-12-27T23:39:28.661Z,5.20
2022-12-27T23:41:56.056Z,5.30
2022-12-27T23:44:33.746Z,5.30
2022-12-27T23:47:05.332Z,5.30
2022-12-27T23:49:32.732Z,5.30
2022-12-27T23:52:01.062Z,5.30
2022-12-27T23:54:27.882Z,5.30
2022-12-27T23:56:54.695Z,5.30
2022-12-27T23:59:21.613Z,5.30
